Portada
METAR-TAF:

METAR-TAF

Aeropuertos :

Aeropuerto de Bruselas. Zaventem

Bruselas, Bélgica

latitud: 50-54N, longitud: 004-32E, altitud: 55 m

Observación

El informe se hizo hace 30 minutos, a las 13:20 UTC
Viento 8 kt del sur
Temperatura 2°C
Humedad 93%
Presión 1019 hPa
Visibilidad: 3200 m
Nubes dispersas a una altura de 300 ft
Cielo nuboso a una altura de 600 ft
neblina

METAR: EBBR 181320Z 18008KT 3200 BR SCT003 BKN006 02/01 Q1019 TEMPO 2000 BR BKN003

Hora: 14:50 (13:50 UTC)

Pronóstico

El informe se hizo hace 2 horas y 40 minutos, a las 11:10 UTC
Pronóstico válido del 18 a las 12 UTC al 19 a las 18 UTC
Viento 5 kt del sur-sureste
Visibilidad: 6000 m
Escasas nubes a una altura de 500 ft
Probabilidad 30% :
Temporalmente
del 18 a las 12 UTC al 18 a las 14 UTC
Visibilidad: 2500 m
Cielo nuboso a una altura de 500 ft
neblina

TAF: EBBR 181110Z 1812/1918 16005KT 6000 NSW FEW005 PROB30 TEMPO 1812/1814 2500 BR BKN005

Observaciones y pronósticos meteorológicos de más de 4000 aeropuertos (mensajes METAR y TAF).

Los puntos amarillos y rojos representan las estaciones disponibles.

Ponga el ratón en el punto deseado para ver el nombre de la estación.

Haga clic para ver las observaciones y los pronósticos meteorológicos.

Para cambiar el mapa : haga clic en los botones verdes con una cruz de color negro para hacer un zoom, en el botón verde con un guión para alejar o en las flechas verdes para mapas adyacentes.


METAR-TAF: